Time;durP1;ratioP1;P1;durP2;ratioP2;P2;SDS_P1;SDS_P2;PMS_P1;PMS_P2;Temp;Humidity;BMP_temperature;BMP_pressure;BME280_temperature;BME280_humidity;BME280_pressure;Samples;Min_cycle;Max_cycle;Signal;HPM_P1;HPM_P2
2023/05/20 00:01:17;;;;;;;10.00;7.80;;;;;;;18.24;64.32;101265.59;108152;1253;61696;-81
2023/05/20 00:03:45;;;;;;;10.40;8.50;;;;;;;18.20;64.39;101267.68;108132;1252;61134;-81
2023/05/20 00:06:12;;;;;;;10.10;8.50;;;;;;;18.15;64.50;101266.24;108169;1252;76177;-81
2023/05/20 00:08:39;;;;;;;9.10;8.00;;;;;;;18.10;64.61;101263.33;108167;1254;73394;-82
2023/05/20 00:11:06;;;;;;;9.90;8.60;;;;;;;18.07;64.65;101263.52;108131;1254;72937;-80
2023/05/20 00:13:34;;;;;;;10.80;8.00;;;;;;;18.05;64.78;101263.17;108027;1254;64301;-80
2023/05/20 00:16:02;;;;;;;8.90;7.80;;;;;;;18.04;64.78;101260.39;108116;1254;60075;-81
2023/05/20 00:18:29;;;;;;;8.10;7.30;;;;;;;18.03;64.73;101262.77;108164;1254;75673;-81
2023/05/20 00:20:56;;;;;;;8.00;6.90;;;;;;;18.04;64.72;101260.98;108121;1254;75088;-80
2023/05/20 00:23:23;;;;;;;8.30;6.90;;;;;;;18.07;64.62;101262.35;108119;1254;76002;-81
2023/05/20 00:25:50;;;;;;;8.20;6.80;;;;;;;18.08;64.50;101260.71;108178;1253;61263;-80
2023/05/20 00:28:18;;;;;;;7.50;6.70;;;;;;;18.08;64.44;101259.25;108261;1253;61137;-80
2023/05/20 00:30:45;;;;;;;9.40;7.30;;;;;;;18.09;64.38;101261.14;108157;1255;74729;-80
2023/05/20 00:33:13;;;;;;;8.60;6.50;;;;;;;18.11;64.39;101262.90;108179;1254;73627;-81
2023/05/20 00:35:40;;;;;;;9.00;6.70;;;;;;;18.13;64.27;101265.09;108268;1253;72420;-81
2023/05/20 00:38:07;;;;;;;8.50;7.00;;;;;;;18.16;64.12;101259.58;108147;1254;61175;-81
2023/05/20 00:40:34;;;;;;;8.50;6.70;;;;;;;18.17;64.10;101260.02;108190;1254;61144;-81
2023/05/20 00:43:01;;;;;;;7.10;6.40;;;;;;;18.20;63.92;101257.85;108243;1256;74887;-81
2023/05/20 00:45:30;;;;;;;7.40;6.60;;;;;;;18.23;63.87;101262.52;108110;1253;75047;-85
2023/05/20 00:48:00;;;;;;;7.60;6.60;;;;;;;18.26;63.69;101261.81;108144;1254;73993;-85
2023/05/20 00:50:27;;;;;;;6.90;6.10;;;;;;;18.30;63.57;101261.40;108130;1254;62273;-85
2023/05/20 00:52:54;;;;;;;9.00;6.60;;;;;;;18.33;63.42;101261.95;108065;1254;61243;-84
2023/05/20 00:55:22;;;;;;;6.80;5.90;;;;;;;18.36;63.32;101260.48;108036;1254;75196;-85
2023/05/20 00:57:49;;;;;;;9.20;6.60;;;;;;;18.39;63.14;101257.20;108176;1253;74079;-84
2023/05/20 01:00:19;;;;;;;8.40;6.90;;;;;;;18.41;62.98;101254.75;108005;1259;73226;-85
2023/05/20 01:02:46;;;;;;;7.80;5.80;;;;;;;18.42;62.92;101251.16;108083;1254;62100;-85
2023/05/20 01:05:15;;;;;;;7.30;6.20;;;;;;;18.44;62.78;101246.12;108117;1254;61131;-85
2023/05/20 01:07:42;;;;;;;11.10;7.10;;;;;;;18.44;62.55;101241.56;108271;1254;75217;-83
2023/05/20 01:10:10;;;;;;;7.80;6.60;;;;;;;18.44;62.73;101242.04;108171;1254;74481;-84
2023/05/20 01:12:53;;;;;;;7.60;6.40;;;;;;;18.44;62.72;101242.80;108105;1254;73835;-85
2023/05/20 01:15:21;;;;;;;8.60;6.70;;;;;;;18.44;62.64;101243.23;107840;1254;62248;-85
2023/05/20 01:17:51;;;;;;;7.70;6.40;;;;;;;18.44;62.60;101240.36;108142;1254;62411;-85
2023/05/20 01:20:19;;;;;;;8.60;6.40;;;;;;;18.44;62.51;101235.88;108060;1259;76965;-85
2023/05/20 01:22:47;;;;;;;8.40;6.70;;;;;;;18.44;62.52;101235.29;108175;1254;70968;-84
2023/05/20 01:25:14;;;;;;;7.70;6.10;;;;;;;18.42;62.44;101236.33;108093;1254;74934;-84
2023/05/20 01:27:42;;;;;;;7.50;6.20;;;;;;;18.42;62.35;101235.96;108110;1254;63935;-84
2023/05/20 01:30:10;;;;;;;6.90;6.20;;;;;;;18.40;62.33;101237.20;108095;1254;61045;-84
2023/05/20 01:32:39;;;;;;;6.80;6.10;;;;;;;18.40;62.29;101235.93;108103;1259;74891;-85
2023/05/20 01:35:07;;;;;;;8.20;6.30;;;;;;;18.44;62.13;101240.31;108171;1253;74741;-84
2023/05/20 01:37:39;;;;;;;8.00;5.70;;;;;;;18.45;62.02;101236.35;108030;1254;75027;-83
2023/05/20 01:40:07;;;;;;;7.90;5.80;;;;;;;18.46;61.92;101236.98;108135;1254;61771;-84
2023/05/20 01:42:34;;;;;;;9.60;6.20;;;;;;;18.47;61.73;101233.95;108125;1254;61221;-84
2023/05/20 01:45:02;;;;;;;8.10;6.60;;;;;;;18.46;61.71;101236.83;108014;1254;75473;-84
2023/05/20 01:47:31;;;;;;;8.00;6.20;;;;;;;18.44;61.69;101233.00;108170;1254;71168;-86
2023/05/20 01:49:59;;;;;;;8.70;6.10;;;;;;;18.42;61.58;101235.70;107967;1254;72133;-84
2023/05/20 01:52:26;;;;;;;7.80;5.90;;;;;;;18.38;61.58;101234.23;108010;1257;63227;-84
2023/05/20 01:54:53;;;;;;;6.90;6.00;;;;;;;18.36;61.55;101237.84;108055;1254;61073;-84
2023/05/20 01:57:21;;;;;;;6.90;6.20;;;;;;;18.36;61.47;101241.30;108157;1254;74895;-85
2023/05/20 01:59:48;;;;;;;9.50;5.50;;;;;;;18.37;61.36;101244.15;108129;1254;73591;-85
2023/05/20 02:02:16;;;;;;;6.20;5.40;;;;;;;18.36;61.34;101246.88;108175;1257;71339;-85
2023/05/20 02:04:47;;;;;;;8.60;5.90;;;;;;;18.35;61.26;101250.02;108149;1255;61280;-85
2023/05/20 02:07:15;;;;;;;6.80;5.50;;;;;;;18.36;61.24;101255.05;108207;1254;61161;-85
2023/05/20 02:09:42;;;;;;;7.10;6.00;;;;;;;18.36;61.11;101255.09;108092;1257;74811;-85
2023/05/20 02:12:15;;;;;;;7.80;5.80;;;;;;;18.33;61.02;101255.94;108127;1254;73120;-85
2023/05/20 02:14:46;;;;;;;6.90;5.70;;;;;;;18.31;60.88;101254.90;108085;1255;71734;-85
2023/05/20 02:17:16;;;;;;;7.10;5.60;;;;;;;18.32;60.83;101254.65;108070;1255;61218;-85
2023/05/20 02:19:44;;;;;;;6.80;5.60;;;;;;;18.30;60.50;101252.27;108001;1259;61273;-85
2023/05/20 02:22:12;;;;;;;8.30;5.70;;;;;;;18.26;60.23;101252.59;108206;1252;76187;-85
2023/05/20 02:24:40;;;;;;;7.10;5.20;;;;;;;18.24;60.37;101248.92;108062;1255;73760;-85
2023/05/20 02:27:08;;;;;;;5.90;5.00;;;;;;;18.25;60.21;101249.57;108097;1259;72859;-85
2023/05/20 02:29:37;;;;;;;7.60;5.50;;;;;;;18.22;60.03;101252.56;108086;1254;61047;-84
2023/05/20 02:32:05;;;;;;;6.60;5.40;;;;;;;18.22;59.95;101252.95;108088;1254;61334;-85
2023/05/20 02:34:32;;;;;;;6.30;5.10;;;;;;;18.21;59.95;101248.11;108144;1254;74915;-86
2023/05/20 02:37:00;;;;;;;6.90;5.00;;;;;;;18.21;59.92;101248.27;108062;1254;73021;-84
2023/05/20 02:39:28;;;;;;;7.20;4.90;;;;;;;18.20;59.91;101247.69;108077;1257;71359;-85
2023/05/20 02:41:55;;;;;;;7.50;5.50;;;;;;;18.20;59.91;101247.58;108066;1253;62865;-86
2023/05/20 02:44:22;;;;;;;6.10;5.10;;;;;;;18.21;59.91;101252.42;107899;1254;360855;-84
2023/05/20 02:46:50;;;;;;;5.80;4.90;;;;;;;18.21;59.67;101259.14;108239;1254;74437;-84
2023/05/20 02:49:17;;;;;;;6.30;5.00;;;;;;;18.21;59.52;101260.00;108156;1253;72508;-85
2023/05/20 02:51:44;;;;;;;6.10;4.80;;;;;;;18.20;59.49;101259.91;108152;1254;74868;-85
2023/05/20 02:54:11;;;;;;;7.00;5.30;;;;;;;18.21;59.42;101264.55;108159;1254;62066;-84
2023/05/20 02:56:38;;;;;;;8.70;5.80;;;;;;;18.22;59.52;101265.23;108133;1253;61128;-85
2023/05/20 02:59:06;;;;;;;6.20;4.70;;;;;;;18.24;59.46;101266.67;108178;1254;73290;-84
2023/05/20 03:01:34;;;;;;;10.10;5.00;;;;;;;18.26;59.31;101267.34;108176;1260;71414;-84
2023/05/20 03:04:02;;;;;;;7.10;5.30;;;;;;;18.27;59.12;101271.21;108118;1260;71009;-84
2023/05/20 03:06:30;;;;;;;5.90;4.40;;;;;;;18.29;59.21;101268.70;108108;1255;64007;-85
2023/05/20 03:08:58;;;;;;;7.20;4.80;;;;;;;18.33;59.11;101272.82;108044;1254;61246;-85
2023/05/20 03:11:25;;;;;;;8.10;5.00;;;;;;;18.35;58.97;101271.71;108044;1259;74990;-83
2023/05/20 03:13:52;;;;;;;7.20;4.90;;;;;;;18.37;58.99;101276.12;107976;1254;73392;-83
2023/05/20 03:16:19;;;;;;;7.10;5.00;;;;;;;18.40;59.01;101278.45;107974;1255;74947;-85
2023/05/20 03:18:47;;;;;;;7.20;5.10;;;;;;;18.43;59.07;101285.23;108144;1254;61253;-83
2023/05/20 03:21:15;;;;;;;6.30;4.80;;;;;;;18.48;59.06;101283.70;108190;1254;61135;-84
2023/05/20 03:23:43;;;;;;;8.10;4.80;;;;;;;18.54;58.81;101282.64;108065;1254;74383;-85
2023/05/20 03:26:10;;;;;;;6.40;5.00;;;;;;;18.60;58.63;101280.34;108187;1254;73192;-85
2023/05/20 03:28:38;;;;;;;7.90;4.90;;;;;;;18.64;58.55;101279.90;108248;1254;73009;-85
2023/05/20 03:31:06;;;;;;;8.10;5.30;;;;;;;18.69;58.71;101280.58;108163;1254;61315;-85
2023/05/20 03:33:34;;;;;;;7.40;5.20;;;;;;;18.76;58.48;101284.89;108340;1258;61134;-83
2023/05/20 03:36:01;;;;;;;5.70;4.80;;;;;;;18.83;58.37;101283.77;108123;1260;76341;-84
2023/05/20 03:38:29;;;;;;;7.20;5.50;;;;;;;18.89;58.32;101288.79;108312;1257;73183;-84
2023/05/20 03:40:56;;;;;;;7.60;5.30;;;;;;;18.92;57.87;101286.16;108068;1253;72955;-84
2023/05/20 03:43:24;;;;;;;7.80;5.40;;;;;;;18.96;57.94;101286.31;108373;1254;62693;-84
2023/05/20 03:45:51;;;;;;;8.20;5.60;;;;;;;19.01;57.85;101290.14;108181;1254;61127;-83
2023/05/20 03:48:19;;;;;;;6.10;4.90;;;;;;;19.03;57.48;101287.83;108150;1254;74987;-85
2023/05/20 03:50:48;;;;;;;8.10;4.80;;;;;;;19.02;57.22;101283.94;108020;1254;73741;-87
2023/05/20 03:53:16;;;;;;;7.10;5.00;;;;;;;19.00;57.25;101282.08;108084;1254;75058;-86
2023/05/20 03:55:43;;;;;;;6.30;5.20;;;;;;;19.02;57.16;101288.32;108124;1254;64089;-84
2023/05/20 03:58:12;;;;;;;6.40;5.10;;;;;;;19.05;57.10;101288.98;108188;1254;61361;-85
2023/05/20 04:00:40;;;;;;;6.80;5.00;;;;;;;19.07;57.12;101290.09;108201;1253;73740;-84
2023/05/20 04:03:07;;;;;;;8.10;5.40;;;;;;;19.12;57.08;101289.35;108201;1254;74125;-84
2023/05/20 04:05:35;;;;;;;7.20;5.20;;;;;;;19.12;56.75;101289.14;108154;1254;72794;-83
2023/05/20 04:08:06;;;;;;;10.00;5.40;;;;;;;19.08;56.78;101292.13;108066;1254;62893;-84
2023/05/20 04:10:33;;;;;;;8.10;5.40;;;;;;;19.07;56.84;101293.45;108058;1255;61731;-85
2023/05/20 04:13:00;;;;;;;6.30;4.70;;;;;;;19.06;56.72;101289.35;108158;1254;76536;-84
2023/05/20 04:15:28;;;;;;;5.70;4.80;;;;;;;19.08;56.82;101292.14;108012;1254;71880;-85
2023/05/20 04:17:56;;;;;;;6.30;5.10;;;;;;;19.10;56.65;101293.83;108045;1254;73012;-84
2023/05/20 04:20:24;;;;;;;6.40;5.30;;;;;;;19.10;56.61;101297.45;108180;1254;61084;-83
2023/05/20 04:22:54;;;;;;;7.30;5.20;;;;;;;19.08;56.61;101294.78;108199;1259;60937;-84
2023/05/20 04:25:21;;;;;;;6.80;5.80;;;;;;;19.03;56.53;101294.86;108190;1257;76301;-84
2023/05/20 04:27:49;;;;;;;9.00;5.30;;;;;;;19.03;56.64;101294.48;108164;1254;72843;-83
2023/05/20 04:30:17;;;;;;;6.30;5.20;;;;;;;19.07;56.73;101299.20;108121;1254;72558;-83
2023/05/20 04:32:44;;;;;;;7.40;5.30;;;;;;;19.11;56.94;101303.55;108182;1260;61093;-85
2023/05/20 04:35:12;;;;;;;7.40;5.20;;;;;;;19.22;56.86;101309.92;107971;1254;62405;-83
2023/05/20 04:37:52;;;;;;;9.10;5.10;;;;;;;19.28;56.45;101310.70;108238;1255;74044;-83
2023/05/20 04:40:20;;;;;;;7.70;5.70;;;;;;;19.31;56.26;101315.41;108035;1254;75006;-83
2023/05/20 04:42:47;;;;;;;6.50;5.10;;;;;;;19.35;56.29;101317.18;108103;1259;74814;-83
2023/05/20 04:45:14;;;;;;;7.20;5.40;;;;;;;19.40;56.36;101319.65;108098;1255;61458;-83
2023/05/20 04:47:43;;;;;;;6.70;5.20;;;;;;;19.44;56.34;101318.43;108071;1254;61146;-83
2023/05/20 04:50:10;;;;;;;8.10;5.10;;;;;;;19.49;55.90;101320.15;108036;1254;73439;-84
2023/05/20 04:52:40;;;;;;;7.30;5.20;;;;;;;19.51;55.72;101316.35;108164;1259;74289;-84
2023/05/20 04:55:09;;;;;;;7.10;5.60;;;;;;;19.58;55.73;101313.27;108043;1258;73204;-84
2023/05/20 04:57:39;;;;;;;7.80;5.80;;;;;;;19.68;55.62;101312.55;108113;1254;62301;-83
2023/05/20 05:00:10;;;;;;;6.00;5.40;;;;;;;19.71;55.26;101313.43;108108;1254;61744;-85
2023/05/20 05:02:38;;;;;;;7.00;5.40;;;;;;;19.77;55.25;101311.58;108005;1254;74975;-85
2023/05/20 05:05:06;;;;;;;7.00;5.50;;;;;;;19.85;55.22;101307.23;108112;1254;75075;-85
2023/05/20 05:07:33;;;;;;;7.00;5.70;;;;;;;19.95;54.98;101312.14;108165;1254;73665;-83
2023/05/20 05:10:00;;;;;;;6.50;5.30;;;;;;;19.95;54.24;101314.59;108190;1254;63967;-84
2023/05/20 05:12:29;;;;;;;8.80;5.60;;;;;;;19.89;54.01;101316.45;108206;1254;62309;-84
2023/05/20 05:14:57;;;;;;;8.50;5.60;;;;;;;19.86;54.29;101318.73;108094;1252;75286;-84
2023/05/20 05:17:25;;;;;;;6.20;5.20;;;;;;;19.85;54.27;101324.34;107998;1254;72919;-83
2023/05/20 05:19:52;;;;;;;5.80;4.60;;;;;;;19.86;54.36;101318.90;108056;1254;70708;-84
2023/05/20 05:22:19;;;;;;;7.30;5.20;;;;;;;19.92;54.41;101320.50;108213;1254;62437;-85
2023/05/20 05:24:48;;;;;;;7.00;5.40;;;;;;;19.95;54.19;101321.27;108101;1260;59924;-84
2023/05/20 05:27:15;;;;;;;7.40;5.50;;;;;;;19.98;53.76;101322.35;108182;1254;76678;-83
2023/05/20 05:29:42;;;;;;;6.50;5.70;;;;;;;19.99;53.72;101323.48;108113;1255;72259;-83
2023/05/20 05:32:10;;;;;;;6.70;5.60;;;;;;;20.00;53.61;101324.31;107984;1260;74439;-85
2023/05/20 05:34:37;;;;;;;6.90;5.60;;;;;;;20.03;53.66;101329.73;108130;1257;62153;-84
2023/05/20 05:37:05;;;;;;;7.40;5.40;;;;;;;20.07;53.31;101330.39;108115;1254;61241;-85
2023/05/20 05:39:33;;;;;;;7.10;5.50;;;;;;;20.13;53.19;101331.91;108052;1257;74318;-84
2023/05/20 05:42:00;;;;;;;6.20;5.40;;;;;;;20.17;52.85;101329.33;108239;1254;73494;-83
2023/05/20 05:44:27;;;;;;;6.70;5.30;;;;;;;20.20;53.04;101328.91;108066;1253;72513;-83
2023/05/20 05:46:56;;;;;;;7.60;4.80;;;;;;;20.29;52.58;101337.98;108152;1254;62173;-84
2023/05/20 05:49:23;;;;;;;6.00;4.50;;;;;;;20.33;52.19;101335.17;108157;1254;61279;-84
2023/05/20 05:51:51;;;;;;;6.20;4.60;;;;;;;20.32;52.14;101339.99;108027;1254;72924;-84
2023/05/20 05:54:19;;;;;;;7.60;4.60;;;;;;;20.33;52.23;101339.80;108017;1254;74735;-85
2023/05/20 05:56:50;;;;;;;7.30;4.50;;;;;;;20.39;52.20;101333.70;108057;1254;72974;-83
2023/05/20 05:59:18;;;;;;;5.50;4.70;;;;;;;20.45;52.04;101334.55;107892;1254;61296;-85
2023/05/20 06:01:45;;;;;;;7.20;5.10;;;;;;;20.55;51.81;101327.77;108111;1253;61211;-84
2023/05/20 06:04:13;;;;;;;6.20;4.90;;;;;;;20.65;51.77;101329.38;108152;1254;75249;-85
2023/05/20 06:06:41;;;;;;;7.10;4.80;;;;;;;20.75;51.32;101325.23;108168;1254;73583;-85
2023/05/20 06:09:08;;;;;;;5.70;4.90;;;;;;;20.85;51.00;101322.55;108148;1254;71637;-83
2023/05/20 06:11:35;;;;;;;7.10;5.00;;;;;;;20.90;50.55;101319.41;108132;1257;61160;-85
2023/05/20 06:14:02;;;;;;;7.00;4.90;;;;;;;20.92;50.50;101317.73;108202;1254;62638;-85
2023/05/20 06:16:30;;;;;;;7.60;4.90;;;;;;;20.93;50.43;101316.00;108230;1254;76948;-87
2023/05/20 06:18:58;;;;;;;8.50;4.80;;;;;;;21.03;50.69;101317.36;108178;1254;72613;-86
2023/05/20 06:21:31;;;;;;;8.20;4.90;;;;;;;21.22;50.31;101316.83;108269;1254;73140;-86
2023/05/20 06:23:59;;;;;;;7.10;4.50;;;;;;;21.36;49.49;101315.25;78174;1254;10002166;-84
2023/05/20 06:26:26;;;;;;;6.10;4.90;;;;;;;21.45;49.26;101314.89;107913;1254;73818;-83
2023/05/20 06:28:53;;;;;;;6.70;5.20;;;;;;;21.56;49.05;101313.59;107904;1253;73382;-84
2023/05/20 06:31:22;;;;;;;6.60;4.80;;;;;;;21.70;48.95;101311.62;108170;1254;61102;-85
2023/05/20 06:33:50;;;;;;;7.20;4.80;;;;;;;21.79;48.28;101314.98;107972;1260;61243;-87
2023/05/20 06:36:17;;;;;;;6.20;4.50;;;;;;;21.86;48.26;101312.30;108186;1254;73602;-86
2023/05/20 06:38:45;;;;;;;6.70;4.30;;;;;;;21.97;47.60;101314.38;108277;1254;73848;-85
2023/05/20 06:41:13;;;;;;;7.00;4.50;;;;;;;22.03;46.53;101310.78;108054;1254;72437;-86
2023/05/20 06:43:41;;;;;;;7.40;4.90;;;;;;;22.01;45.90;101307.46;107762;1260;61314;-84
2023/05/20 06:46:37;;;;;;;8.10;4.70;;;;;;;21.98;46.10;101303.95;107617;1254;62390;-89
2023/05/20 06:49:08;;;;;;;5.30;4.10;;;;;;;22.03;45.34;101310.02;108309;1254;75780;-85
2023/05/20 06:51:35;;;;;;;7.00;4.30;;;;;;;22.02;44.83;101315.27;108317;1259;73960;-86
2023/05/20 06:54:03;;;;;;;6.20;4.00;;;;;;;22.04;44.88;101316.30;108264;1254;73747;-86
2023/05/20 06:56:30;;;;;;;5.80;4.10;;;;;;;22.13;44.88;101313.12;108130;1257;62803;-87
2023/05/20 06:58:58;;;;;;;5.70;4.30;;;;;;;22.20;44.57;101315.65;109098;1254;59932;-89
2023/05/20 07:01:25;;;;;;;5.40;4.20;;;;;;;22.21;44.37;101315.49;108300;1254;75340;-86
2023/05/20 07:03:52;;;;;;;7.10;4.30;;;;;;;22.29;44.61;101316.96;108432;1254;70746;-86
2023/05/20 07:06:19;;;;;;;7.10;4.80;;;;;;;22.39;44.26;101316.02;108571;1254;73524;-85
2023/05/20 07:08:46;;;;;;;6.60;4.50;;;;;;;22.46;44.34;101316.71;108751;1254;61189;-86
2023/05/20 07:11:14;;;;;;;5.30;4.10;;;;;;;22.59;44.20;101319.77;108745;1253;61312;-86
2023/05/20 07:13:41;;;;;;;6.40;4.20;;;;;;;22.74;43.61;101322.95;109205;1252;74063;-87
2023/05/20 07:16:08;;;;;;;5.70;4.20;;;;;;;22.78;42.55;101322.66;108162;1254;73394;-85
2023/05/20 07:18:38;;;;;;;5.10;4.20;;;;;;;22.70;42.44;101319.90;108001;1254;73252;-86
2023/05/20 07:21:05;;;;;;;8.20;4.30;;;;;;;22.63;42.58;101319.90;108220;1253;61329;-87
2023/05/20 07:23:58;;;;;;;6.30;4.80;;;;;;;22.58;42.66;101320.33;107860;1259;62521;-86
2023/05/20 07:26:25;;;;;;;6.80;4.50;;;;;;;22.50;42.52;101320.21;108276;1254;74609;-84
2023/05/20 07:28:53;;;;;;;5.10;4.10;;;;;;;22.48;42.15;101324.51;108007;1253;73445;-86
2023/05/20 07:31:22;;;;;;;8.10;4.50;;;;;;;22.53;41.99;101320.13;108062;1254;73959;-87
2023/05/20 07:33:50;;;;;;;5.60;3.90;;;;;;;22.58;41.63;101317.65;107906;1253;60722;-86
2023/05/20 07:36:17;;;;;;;7.10;4.30;;;;;;;22.62;41.73;101316.28;108010;1253;61097;-86
2023/05/20 07:38:47;;;;;;;7.70;4.50;;;;;;;22.73;41.76;101317.38;107906;1254;75318;-87
2023/05/20 07:41:30;;;;;;;5.30;4.70;;;;;;;22.88;41.04;101320.79;108032;1254;71854;-86
2023/05/20 07:43:58;;;;;;;6.30;4.30;;;;;;;22.95;39.87;101316.30;107994;1254;72080;-86
2023/05/20 07:46:26;;;;;;;8.60;4.40;;;;;;;22.84;39.92;101310.00;108061;1256;61317;-86
2023/05/20 07:48:53;;;;;;;5.90;4.60;;;;;;;22.76;40.24;101309.80;107979;1254;61234;-85
2023/05/20 07:51:20;;;;;;;5.60;4.10;;;;;;;22.78;40.46;101309.65;107974;1254;72798;-83
2023/05/20 07:53:47;;;;;;;7.30;4.20;;;;;;;22.78;39.88;101307.25;108069;1254;72644;-85
2023/05/20 07:56:15;;;;;;;6.20;4.10;;;;;;;22.78;39.44;101306.61;108138;1254;72656;-85
2023/05/20 07:58:42;;;;;;;6.70;4.50;;;;;;;22.77;39.10;101306.42;108102;1254;61311;-84
2023/05/20 08:01:10;;;;;;;8.30;4.00;;;;;;;22.77;39.01;101303.75;108009;1254;61247;-85
2023/05/20 08:03:37;;;;;;;6.70;4.20;;;;;;;22.82;39.03;101305.55;108026;1254;74964;-83
2023/05/20 08:06:09;;;;;;;6.70;4.40;;;;;;;22.84;38.43;101312.11;108083;1254;72838;-87
2023/05/20 08:08:36;;;;;;;7.20;4.30;;;;;;;22.89;38.34;101316.00;108043;1254;75101;-87
2023/05/20 08:11:08;;;;;;;5.70;4.30;;;;;;;23.00;37.66;101315.40;108201;1254;61889;-85
2023/05/20 08:13:37;;;;;;;8.70;4.60;;;;;;;23.07;37.35;101308.89;107970;1254;61148;-86
2023/05/20 08:16:05;;;;;;;6.40;4.50;;;;;;;23.12;37.53;101310.73;108148;1254;73294;-86
2023/05/20 08:18:36;;;;;;;6.30;4.50;;;;;;;23.10;37.83;101305.89;108033;1254;73267;-85
2023/05/20 08:21:05;;;;;;;8.70;4.70;;;;;;;23.18;37.97;101301.62;107930;1254;74929;-86
2023/05/20 08:23:33;;;;;;;7.00;4.70;;;;;;;23.32;37.93;101303.08;108095;1257;60300;-84
2023/05/20 08:26:05;;;;;;;8.40;4.70;;;;;;;23.52;37.22;101305.66;108084;1260;61583;-86
2023/05/20 08:28:32;;;;;;;5.80;4.30;;;;;;;23.60;35.67;101305.58;108065;1254;76843;-88
2023/05/20 08:31:02;;;;;;;8.80;4.50;;;;;;;23.56;35.50;101303.56;108153;1254;73088;-86
2023/05/20 08:33:30;;;;;;;8.70;4.60;;;;;;;23.57;35.80;101297.14;108137;1254;72710;-87
2023/05/20 08:35:57;;;;;;;6.50;4.30;;;;;;;23.67;35.58;101301.04;108128;1253;62392;-87
2023/05/20 08:38:27;;;;;;;7.80;3.80;;;;;;;23.75;34.52;101299.59;108094;1254;61099;-88
2023/05/20 08:40:55;;;;;;;6.60;3.60;;;;;;;23.83;33.65;101291.83;108073;1254;75718;-85
2023/05/20 08:43:23;;;;;;;7.70;3.90;;;;;;;23.85;33.66;101293.59;108165;1252;72053;-85
2023/05/20 08:45:53;;;;;;;6.50;3.90;;;;;;;23.80;33.79;101294.66;108079;1256;71513;-86
2023/05/20 08:48:24;;;;;;;9.30;4.40;;;;;;;23.85;33.61;101291.72;108116;1257;59513;-86
2023/05/20 08:50:51;;;;;;;10.00;4.20;;;;;;;23.87;33.75;101294.40;108055;1254;61350;-86
2023/05/20 08:53:19;;;;;;;8.60;3.80;;;;;;;23.96;34.06;101287.10;108185;1254;76831;-86
2023/05/20 08:55:53;;;;;;;7.60;4.30;;;;;;;24.09;33.80;101285.58;107948;1254;73559;-85
2023/05/20 08:58:22;;;;;;;6.80;4.10;;;;;;;24.18;33.92;101291.92;108166;1254;71380;-86
2023/05/20 09:00:50;;;;;;;6.20;3.80;;;;;;;24.23;33.40;101289.85;108120;1254;61291;-86
2023/05/20 09:03:19;;;;;;;7.20;3.90;;;;;;;24.26;33.36;101294.04;108235;1254;61147;-85
2023/05/20 09:05:46;;;;;;;5.20;3.40;;;;;;;24.32;33.04;101293.02;108242;1253;74659;-87
2023/05/20 09:08:15;;;;;;;7.50;3.30;;;;;;;24.39;31.93;101295.59;108238;1254;72153;-85
2023/05/20 09:10:42;;;;;;;7.60;3.10;;;;;;;24.42;31.09;101296.08;108173;1254;71429;-84
2023/05/20 09:13:09;;;;;;;5.50;3.00;;;;;;;24.46;31.41;101295.52;108233;1253;61192;-87
2023/05/20 09:15:37;;;;;;;6.20;3.30;;;;;;;24.50;31.68;101291.90;108173;1253;61323;-84
2023/05/20 09:18:06;;;;;;;7.80;3.50;;;;;;;24.54;31.49;101287.16;108217;1253;74788;-86
2023/05/20 09:20:36;;;;;;;5.30;3.30;;;;;;;24.57;31.27;101288.59;108236;1254;75158;-83
2023/05/20 09:23:05;;;;;;;8.30;3.10;;;;;;;24.65;31.02;101292.07;108173;1254;73707;-84
2023/05/20 09:25:32;;;;;;;4.50;3.10;;;;;;;24.75;31.05;101288.01;108161;1253;61124;-84
2023/05/20 09:28:00;;;;;;;6.60;2.80;;;;;;;24.86;31.00;101285.88;108193;1254;61304;-85
2023/05/20 09:30:27;;;;;;;5.50;2.60;;;;;;;24.93;31.00;101287.06;108117;1254;75062;-86
2023/05/20 09:32:55;;;;;;;5.90;3.10;;;;;;;24.99;30.66;101288.45;108191;1254;72924;-87
2023/05/20 09:35:23;;;;;;;5.40;2.60;;;;;;;25.04;30.71;101294.64;108149;1259;72812;-85
2023/05/20 09:37:57;;;;;;;5.00;2.70;;;;;;;25.10;30.02;101285.54;108013;1254;61154;-86
2023/05/20 09:40:27;;;;;;;4.70;2.60;;;;;;;25.06;29.07;101284.02;108241;1254;61094;-86
2023/05/20 09:43:07;;;;;;;6.90;3.10;;;;;;;25.09;29.60;101290.30;108108;1254;73179;-85
2023/05/20 09:45:34;;;;;;;3.50;2.40;;;;;;;25.23;29.92;101279.33;108191;1253;71786;-88
2023/05/20 09:48:02;;;;;;;4.70;3.00;;;;;;;25.38;28.99;101278.41;108126;1253;75211;-87
2023/05/20 09:50:30;;;;;;;6.60;2.70;;;;;;;25.37;28.98;101274.95;108036;1254;62786;-87
2023/05/20 09:53:01;;;;;;;4.40;2.70;;;;;;;25.32;29.14;101277.80;108075;1252;61238;-84
2023/05/20 09:55:28;;;;;;;7.40;3.10;;;;;;;25.24;28.57;101275.22;108216;1254;74702;-85
2023/05/20 09:57:56;;;;;;;4.10;2.40;;;;;;;25.17;28.71;101278.86;108409;1258;73619;-84
2023/05/20 10:00:23;;;;;;;6.90;2.60;;;;;;;25.13;28.48;101277.48;108231;1254;74779;-85
2023/05/20 10:02:51;;;;;;;6.30;2.70;;;;;;;25.03;28.14;101275.58;108463;1254;59506;-87
2023/05/20 10:05:23;;;;;;;8.40;3.00;;;;;;;25.05;28.67;101272.82;108467;1254;61102;-86
2023/05/20 10:07:55;;;;;;;4.20;2.60;;;;;;;25.20;28.95;101273.42;108246;1253;76036;-86
2023/05/20 10:10:32;;;;;;;5.10;2.50;;;;;;;25.29;29.05;101271.01;108185;1254;73865;-87
2023/05/20 10:13:29;;;;;;;4.80;2.40;;;;;;;25.37;28.57;101274.08;108160;1257;73001;-87
2023/05/20 10:16:05;;;;;;;5.90;2.50;;;;;;;25.45;27.84;101269.66;107881;1254;61240;-86
2023/05/20 10:19:06;;;;;;;5.60;2.60;;;;;;;25.36;28.10;101265.86;108180;1254;61132;-86
2023/05/20 10:21:33;;;;;;;5.30;2.60;;;;;;;25.37;28.11;101270.73;107932;1254;73191;-86
2023/05/20 10:24:09;;;;;;;5.30;3.50;;;;;;;25.46;28.14;101274.39;108114;1254;75403;-85
2023/05/20 10:26:40;;;;;;;5.30;2.80;;;;;;;25.53;27.80;101278.81;108176;1254;71394;-87
2023/05/20 10:29:17;;;;;;;5.00;2.60;;;;;;;25.47;26.93;101275.69;108209;1254;61229;-87
2023/05/20 10:31:49;;;;;;;4.20;2.30;;;;;;;25.42;27.15;101272.14;108253;1253;61090;-86
2023/05/20 10:34:20;;;;;;;5.00;2.40;;;;;;;25.42;26.99;101267.38;108098;1253;74191;-89
2023/05/20 10:36:58;;;;;;;4.20;2.40;;;;;;;25.42;27.09;101265.65;108171;1254;72718;-86
2023/05/20 10:39:27;;;;;;;6.10;2.60;;;;;;;25.43;27.45;101267.33;108136;1254;73081;-86
2023/05/20 10:42:07;;;;;;;4.40;2.30;;;;;;;25.47;27.30;101274.90;108108;1254;61115;-86
2023/05/20 10:44:42;;;;;;;5.80;2.50;;;;;;;25.48;27.41;101260.69;108202;1253;61150;-86
2023/05/20 10:47:10;;;;;;;6.70;2.50;;;;;;;25.53;27.36;101254.45;108029;1254;75211;-84
2023/05/20 10:49:43;;;;;;;4.20;2.50;;;;;;;25.62;27.51;101250.73;108139;1254;72105;-86
2023/05/20 10:52:12;;;;;;;5.90;2.10;;;;;;;25.71;26.66;101256.58;108116;1259;72640;-85
2023/05/20 10:54:43;;;;;;;4.60;2.30;;;;;;;25.73;25.96;101260.27;108056;1254;61237;-84
2023/05/20 10:57:11;;;;;;;6.80;2.60;;;;;;;25.64;25.92;101257.92;108118;1258;61268;-87
2023/05/20 10:59:38;;;;;;;4.90;2.30;;;;;;;25.61;26.13;101258.21;108010;1252;76670;-84
2023/05/20 11:02:05;;;;;;;4.40;2.20;;;;;;;25.67;26.35;101257.32;108117;1254;73337;-85
2023/05/20 11:04:34;;;;;;;5.40;2.60;;;;;;;25.81;26.85;101260.90;108244;1254;74883;-86
2023/05/20 11:07:01;;;;;;;4.80;2.40;;;;;;;26.01;27.32;101260.27;108123;1254;62567;-85
2023/05/20 11:09:30;;;;;;;4.20;2.30;;;;;;;26.13;26.80;101260.41;108159;1253;61176;-85
2023/05/20 11:11:57;;;;;;;3.80;2.20;;;;;;;26.20;26.19;101259.98;108263;1253;73801;-85
2023/05/20 11:14:27;;;;;;;4.70;2.30;;;;;;;26.15;26.35;101252.48;108231;1253;73531;-85
2023/05/20 11:16:58;;;;;;;3.40;2.20;;;;;;;26.12;26.03;101253.56;108136;1253;71075;-84
2023/05/20 11:19:25;;;;;;;6.50;2.60;;;;;;;26.09;26.54;101254.39;108279;1254;62027;-85
2023/05/20 11:21:53;;;;;;;4.20;2.30;;;;;;;26.13;27.05;101249.38;108158;1254;60994;-84
2023/05/20 11:24:27;;;;;;;7.00;2.60;;;;;;;26.18;26.86;101250.85;108093;1254;74740;-86